createdAt,value
2023-05-22T00:01:41.978Z,11.6
2023-05-22T00:07:34.179Z,11.6
2023-05-22T00:13:09.790Z,11.7
2023-05-22T00:19:02.055Z,11.8
2023-05-22T00:24:53.738Z,11.8
2023-05-22T00:30:44.692Z,11.9
2023-05-22T00:36:36.512Z,11.9
2023-05-22T00:42:28.357Z,12
2023-05-22T00:48:20.129Z,12.1
2023-05-22T00:54:11.253Z,12.1
2023-05-22T01:00:02.541Z,12.2
2023-05-22T01:05:56.039Z,12.2
2023-05-22T01:11:47.419Z,12.3
2023-05-22T01:17:38.964Z,12.2
2023-05-22T01:23:31.513Z,12.2
2023-05-22T01:29:22.908Z,12.2
2023-05-22T01:35:14.708Z,12.1
2023-05-22T01:41:05.645Z,12.1
2023-05-22T01:46:58.402Z,12
2023-05-22T01:52:49.448Z,11.9
2023-05-22T01:58:40.627Z,11.9
2023-05-22T02:04:34.069Z,11.8
2023-05-22T02:10:25.753Z,11.7
2023-05-22T02:16:17.916Z,11.6
2023-05-22T02:21:54.315Z,11.6
2023-05-22T02:27:46.087Z,11.4
2023-05-22T02:33:38.120Z,11.4
2023-05-22T02:39:29.676Z,11.3
2023-05-22T02:45:21.579Z,11.2
2023-05-22T02:51:13.393Z,11.1
2023-05-22T02:57:04.527Z,11
2023-05-22T03:02:56.678Z,10.9
2023-05-22T03:08:48.461Z,10.8
2023-05-22T03:14:40.285Z,10.7
2023-05-22T03:20:32.449Z,10.6
2023-05-22T03:26:23.491Z,10.5
2023-05-22T03:32:15.481Z,10.4
2023-05-22T03:38:07.415Z,10.4
2023-05-22T03:43:44.969Z,10.3
2023-05-22T03:49:21.911Z,10.3
2023-05-22T03:55:15.428Z,10.2
2023-05-22T04:01:06.464Z,10.2
2023-05-22T04:06:58.406Z,10.2
2023-05-22T04:12:50.693Z,10.2
2023-05-22T04:18:41.716Z,10.3
2023-05-22T04:24:33.359Z,10.3
2023-05-22T04:30:24.598Z,10.4
2023-05-22T04:36:01.421Z,10.5
2023-05-22T04:41:39.104Z,10.6
2023-05-22T04:47:31.278Z,10.8
2023-05-22T04:53:22.885Z,11
2023-05-22T04:59:26.595Z,11.4
2023-05-22T05:05:20.285Z,12.4
2023-05-22T05:11:12.834Z,13.7
2023-05-22T05:17:04.781Z,15.3
2023-05-22T05:28:35.257Z,18.8
2023-05-22T05:34:26.685Z,20.9
2023-05-22T05:40:03.077Z,27.6
2023-05-22T05:45:54.600Z,27.3
2023-05-22T05:51:45.650Z,27.1
2023-05-22T05:57:38.301Z,30.9
2023-05-22T06:03:31.567Z,31.1
2023-05-22T06:09:23.768Z,31.7
2023-05-22T06:14:59.615Z,32
2023-05-22T06:20:53.136Z,32
2023-05-22T06:26:44.500Z,31.9
2023-05-22T06:32:56.410Z,32.1
2023-05-22T06:38:49.207Z,32.8
2023-05-22T06:44:40.751Z,33.5
2023-05-22T06:50:33.380Z,34.3
2023-05-22T06:56:25.478Z,34.2
2023-05-22T07:02:17.910Z,34.3
2023-05-22T07:08:10.870Z,34.3
2023-05-22T07:14:05.641Z,34.4
2023-05-22T07:20:00.391Z,34.6
2023-05-22T07:25:52.789Z,34.9
2023-05-22T07:31:45.411Z,35.4
2023-05-22T07:37:38.435Z,35.9
2023-05-22T07:43:32.514Z,36.8
2023-05-22T07:49:25.110Z,37.6
2023-05-22T07:55:18.769Z,38.2
2023-05-22T08:01:11.018Z,38.9
2023-05-22T08:06:50.850Z,39.4
2023-05-22T08:13:08.269Z,40.1
2023-05-22T08:19:08.391Z,41.3
2023-05-22T08:24:46.181Z,42.2
2023-05-22T08:30:38.668Z,43.1
2023-05-22T08:36:31.640Z,44.2
2023-05-22T08:42:26.220Z,45.1
2023-05-22T08:48:17.772Z,45.9
2023-05-22T08:54:10.247Z,46.8
2023-05-22T09:00:08.809Z,47.4
2023-05-22T09:06:03.872Z,47.3
2023-05-22T09:12:08.938Z,46.7
2023-05-22T09:18:02.598Z,46.3
2023-05-22T09:24:08.351Z,45.8
2023-05-22T09:30:01.097Z,45.2
2023-05-22T09:35:54.394Z,44.8
2023-05-22T09:41:47.044Z,44.6
2023-05-22T09:47:42.438Z,44.9
2023-05-22T09:53:34.823Z,46.1
2023-05-22T09:59:43.657Z,46.6
2023-05-22T10:05:38.822Z,46.4
2023-05-22T10:11:36.359Z,46.6
2023-05-22T10:17:30.157Z,46.2
2023-05-22T10:23:26.313Z,46
2023-05-22T10:29:04.407Z,45.8
2023-05-22T10:34:58.187Z,45.4
2023-05-22T10:41:02.107Z,44.2
2023-05-22T10:46:57.145Z,43.6
2023-05-22T10:52:35.538Z,43.2
2023-05-22T10:58:29.196Z,42.9
2023-05-22T11:04:33.791Z,43.1
2023-05-22T11:10:27.894Z,43.4
2023-05-22T11:16:25.389Z,43.6
2023-05-22T11:22:31.184Z,44.1
2023-05-22T11:28:24.958Z,43.5
2023-05-22T11:34:48.378Z,43
2023-05-22T11:40:26.003Z,42.5
2023-05-22T11:46:21.694Z,40.8
2023-05-22T11:52:26.280Z,38.1
2023-05-22T11:58:21.258Z,35.5
2023-05-22T12:04:21.147Z,33.1
2023-05-22T12:10:16.676Z,30.9
2023-05-22T12:16:12.851Z,29.2
2023-05-22T12:21:52.454Z,32.6
2023-05-22T12:27:49.452Z,30.4
2023-05-22T12:33:44.463Z,28.9
2023-05-22T12:39:23.590Z,28.1
2023-05-22T12:45:18.954Z,27.4
2023-05-22T12:50:59.482Z,26.9
2023-05-22T12:56:57.822Z,26.2
2023-05-22T13:02:52.956Z,25.6
2023-05-22T13:08:48.335Z,24.9
2023-05-22T13:14:32.392Z,24.6
2023-05-22T13:20:33.424Z,24.3
2023-05-22T13:26:36.231Z,24.1
2023-05-22T13:32:18.889Z,24
2023-05-22T13:38:17.207Z,24.3
2023-05-22T13:44:14.095Z,30.8
2023-05-22T13:49:54.455Z,30.9
2023-05-22T13:55:48.560Z,33.3
2023-05-22T14:01:28.325Z,34.1
2023-05-22T14:06:51.758Z,34.6
2023-05-22T14:12:28.553Z,35
2023-05-22T14:18:06.206Z,35.3
2023-05-22T14:24:09.748Z,35.4
2023-05-22T14:30:02.529Z,35.9
2023-05-22T14:35:40.600Z,36.2
2023-05-22T14:41:02.156Z,35.9
2023-05-22T14:46:54.957Z,35.4
2023-05-22T14:53:00.547Z,35
2023-05-22T14:58:53.032Z,34.7
2023-05-22T15:04:47.414Z,34.3
2023-05-22T15:10:49.781Z,33.8
2023-05-22T15:16:41.884Z,33.4
2023-05-22T15:22:46.834Z,32.7
2023-05-22T15:28:42.300Z,32.3
2023-05-22T15:34:35.316Z,32.1
2023-05-22T15:40:28.252Z,31.9
2023-05-22T15:46:33.152Z,31.8
2023-05-22T15:52:25.914Z,31.6
2023-05-22T15:58:20.468Z,31.6
2023-05-22T16:04:15.613Z,31.4
2023-05-22T16:09:52.998Z,31.3
2023-05-22T16:15:50.636Z,31.1
2023-05-22T16:21:45.327Z,30.9
2023-05-22T16:27:52.182Z,30.6
2023-05-22T16:33:46.012Z,30.3
2023-05-22T16:39:23.080Z,29.8
2023-05-22T16:45:17.273Z,29.3
2023-05-22T16:51:10.554Z,29
2023-05-22T16:57:02.449Z,28.1
2023-05-22T17:02:55.916Z,27
2023-05-22T17:08:50.056Z,25.9
2023-05-22T17:14:26.860Z,24.9
2023-05-22T17:20:22.428Z,23.9
2023-05-22T17:26:16.567Z,23.1
2023-05-22T17:31:48.772Z,22.3
2023-05-22T17:37:41.662Z,21.6
2023-05-22T17:43:50.112Z,20.8
2023-05-22T17:49:42.804Z,20.2
2023-05-22T17:55:36.284Z,19.6
2023-05-22T18:01:13.876Z,19.1
2023-05-22T18:06:38.889Z,18.6
2023-05-22T18:12:47.129Z,18.1
2023-05-22T18:18:40.859Z,17.6
2023-05-22T18:24:32.342Z,17.2
2023-05-22T18:29:54.242Z,16.8
2023-05-22T18:35:48.097Z,16.4
2023-05-22T18:41:39.892Z,16.1
2023-05-22T18:47:32.582Z,15.8
2023-05-22T18:53:25.710Z,15.6
2023-05-22T18:59:17.799Z,15.4
2023-05-22T19:04:56.360Z,15.2
2023-05-22T19:10:04.937Z,15.1
2023-05-22T19:15:28.098Z,14.9
2023-05-22T19:20:50.296Z,14.8
2023-05-22T19:25:56.233Z,14.6
2023-05-22T19:31:37.242Z,14.4
2023-05-22T19:37:30.241Z,14.3
2023-05-22T19:43:23.330Z,14.1
2023-05-22T19:49:00.961Z,13.9
2023-05-22T19:54:54.159Z,13.8
2023-05-22T20:00:47.739Z,13.6
2023-05-22T20:11:46.826Z,13.4
2023-05-22T20:17:24.635Z,13.3
2023-05-22T20:23:17.219Z,13.2
2023-05-22T20:29:10.197Z,13.1
2023-05-22T20:35:03.439Z,12.9
2023-05-22T20:40:55.985Z,12.8
2023-05-22T20:46:49.215Z,12.8
2023-05-22T20:52:25.953Z,12.7
2023-05-22T20:58:17.704Z,12.6
2023-05-22T21:04:10.723Z,12.4
2023-05-22T21:10:05.169Z,12.4
2023-05-22T21:15:57.743Z,12.3
2023-05-22T21:21:51.045Z,12.2
2023-05-22T21:27:43.716Z,12.1
2023-05-22T21:33:36.737Z,11.9
2023-05-22T21:39:29.323Z,11.8
2023-05-22T21:45:19.227Z,11.8
2023-05-22T21:51:13.439Z,11.6
2023-05-22T21:57:05.379Z,11.6
2023-05-22T22:02:58.688Z,11.4
2023-05-22T22:08:51.660Z,11.3
2023-05-22T22:14:44.490Z,11.2
2023-05-22T22:20:50.277Z,11.1
2023-05-22T22:26:42.279Z,10.9
2023-05-22T22:32:34.887Z,10.9
2023-05-22T22:38:27.569Z,10.8
2023-05-22T22:44:08.565Z,10.7
2023-05-22T22:49:45.938Z,10.6
2023-05-22T22:55:39.900Z,10.4
2023-05-22T23:01:31.795Z,10.4
2023-05-22T23:07:25.613Z,10.3
2023-05-22T23:13:18.801Z,10.1
2023-05-22T23:19:10.954Z,10.1
2023-05-22T23:24:47.568Z,9.9
2023-05-22T23:30:12.124Z,9.8
2023-05-22T23:35:48.309Z,9.7
2023-05-22T23:41:24.980Z,9.6
2023-05-22T23:47:02.140Z,9.5
2023-05-22T23:52:53.396Z,9.4
2023-05-22T23:58:46.234Z,9.3
